createdAt,value
2019-06-26T00:01:52.334Z,31.83
2019-06-26T00:04:21.136Z,34.63
2019-06-26T00:06:49.879Z,39.07
2019-06-26T00:09:18.685Z,38.73
2019-06-26T00:11:47.498Z,34.00
2019-06-26T00:14:16.423Z,45.23
2019-06-26T00:16:45.245Z,41.93
2019-06-26T00:19:14.150Z,47.53
2019-06-26T00:21:42.925Z,50.20
2019-06-26T00:24:11.806Z,45.73
2019-06-26T00:26:40.523Z,50.13
2019-06-26T00:29:09.319Z,51.77
2019-06-26T00:31:38.087Z,43.37
2019-06-26T00:34:06.883Z,48.40
2019-06-26T00:36:38.678Z,52.97
2019-06-26T00:39:07.455Z,58.97
2019-06-26T00:41:36.385Z,57.80
2019-06-26T00:44:05.313Z,58.03
2019-06-26T00:46:34.239Z,58.47
2019-06-26T00:49:03.225Z,57.47
2019-06-26T00:51:31.976Z,63.00
2019-06-26T00:54:00.767Z,60.30
2019-06-26T00:56:29.766Z,54.10
2019-06-26T00:58:58.511Z,61.57
2019-06-26T01:01:27.695Z,62.77
2019-06-26T01:03:56.424Z,56.97
2019-06-26T01:06:25.919Z,61.57
2019-06-26T01:08:54.635Z,57.07
2019-06-26T01:11:23.464Z,65.37
2019-06-26T01:13:58.032Z,57.67
2019-06-26T01:16:22.637Z,64.10
2019-06-26T01:18:51.383Z,59.03
2019-06-26T01:21:20.149Z,66.67
2019-06-26T01:23:48.944Z,54.23
2019-06-26T01:26:17.680Z,66.87
2019-06-26T01:28:46.416Z,69.93
2019-06-26T01:31:15.228Z,57.27
2019-06-26T01:33:44.019Z,48.00
2019-06-26T01:36:12.761Z,55.43
2019-06-26T01:38:41.477Z,54.10
2019-06-26T01:41:15.245Z,48.60
2019-06-26T01:43:43.961Z,48.10
2019-06-26T01:46:12.719Z,31.07
2019-06-26T01:48:41.621Z,43.20
2019-06-26T01:51:10.541Z,36.17
2019-06-26T01:53:39.268Z,44.63
2019-06-26T01:56:08.027Z,44.03
2019-06-26T01:58:37.186Z,42.00
2019-06-26T02:01:05.939Z,52.40
2019-06-26T02:03:34.736Z,47.30
2019-06-26T02:06:03.481Z,47.63
2019-06-26T02:08:32.214Z,47.97
2019-06-26T02:11:00.953Z,48.30
2019-06-26T02:13:30.007Z,34.27
2019-06-26T02:15:58.796Z,45.83
2019-06-26T02:18:27.652Z,27.47
2019-06-26T02:20:56.406Z,34.00
2019-06-26T02:23:25.152Z,42.83
2019-06-26T02:25:53.961Z,48.40
2019-06-26T02:28:22.766Z,35.53
2019-06-26T02:30:51.627Z,50.37
2019-06-26T02:33:20.369Z,50.47
2019-06-26T02:35:49.168Z,50.83
2019-06-26T02:38:18.067Z,47.80
2019-06-26T02:40:46.863Z,51.40
2019-06-26T02:43:15.606Z,51.77
2019-06-26T02:45:44.399Z,49.77
2019-06-26T02:48:13.142Z,50.10
2019-06-26T02:50:41.877Z,49.50
2019-06-26T02:53:10.615Z,45.17
2019-06-26T02:55:39.408Z,51.30
2019-06-26T02:58:08.213Z,41.57
2019-06-26T03:00:37.080Z,49.63
2019-06-26T03:03:05.915Z,51.80
2019-06-26T03:05:34.724Z,46.00
2019-06-26T03:08:03.747Z,52.57
2019-06-26T03:10:32.463Z,42.23
2019-06-26T03:13:01.220Z,36.77
2019-06-26T03:15:29.946Z,44.57
2019-06-26T03:17:58.938Z,28.30
2019-06-26T03:20:29.220Z,41.17
2019-06-26T03:22:57.969Z,40.20
2019-06-26T03:25:26.769Z,46.67
2019-06-26T03:27:55.489Z,27.63
2019-06-26T03:30:24.350Z,47.87
2019-06-26T03:32:53.059Z,53.67
2019-06-26T03:35:21.800Z,52.90
2019-06-26T03:37:50.588Z,50.00
2019-06-26T03:40:19.469Z,51.60
2019-06-26T03:42:48.226Z,48.77
2019-06-26T03:45:25.606Z,44.87
2019-06-26T03:47:47.602Z,56.77
2019-06-26T03:50:19.248Z,43.53
2019-06-26T03:52:48.080Z,53.03
2019-06-26T03:55:16.988Z,49.57
2019-06-26T03:57:45.780Z,48.00
2019-06-26T04:00:14.531Z,37.10
2019-06-26T04:02:43.327Z,45.37
2019-06-26T04:05:12.211Z,33.50
2019-06-26T04:07:40.927Z,46.83
2019-06-26T04:10:09.860Z,46.27
2019-06-26T04:12:38.665Z,43.03
2019-06-26T04:18:02.356Z,51.97
2019-06-26T04:20:31.227Z,53.93
2019-06-26T04:22:59.969Z,55.67
2019-06-26T04:25:28.731Z,40.00
2019-06-26T04:27:57.456Z,54.23
2019-06-26T04:30:26.301Z,52.57
2019-06-26T04:32:55.407Z,59.70
2019-06-26T04:35:24.620Z,53.30
2019-06-26T04:37:54.135Z,41.13
2019-06-26T04:40:23.377Z,58.37
2019-06-26T04:42:52.762Z,53.73
2019-06-26T04:45:22.130Z,58.27
2019-06-26T04:47:51.526Z,53.70
2019-06-26T04:50:21.067Z,32.40
2019-06-26T04:52:50.289Z,45.73
2019-06-26T04:55:19.571Z,49.40
2019-06-26T04:57:48.784Z,59.90
2019-06-26T05:00:21.643Z,52.00
2019-06-26T05:02:49.189Z,52.30
2019-06-26T05:05:18.546Z,47.53
2019-06-26T05:07:47.774Z,48.50
2019-06-26T05:10:17.268Z,56.83
2019-06-26T05:12:46.540Z,51.10
2019-06-26T05:15:15.867Z,60.23
2019-06-26T05:17:45.174Z,59.03
2019-06-26T05:20:14.773Z,47.00
2019-06-26T05:22:43.973Z,53.93
2019-06-26T05:25:13.675Z,62.70
2019-06-26T05:27:42.883Z,53.53
2019-06-26T05:30:12.696Z,55.37
2019-06-26T05:32:41.922Z,64.07
2019-06-26T05:35:11.646Z,65.67
2019-06-26T05:37:40.862Z,65.67
2019-06-26T05:40:11.855Z,63.47
2019-06-26T05:42:41.074Z,62.87
2019-06-26T05:45:11.116Z,67.17
2019-06-26T05:47:40.384Z,63.17
2019-06-26T05:50:10.494Z,45.17
2019-06-26T05:52:42.668Z,62.97
2019-06-26T05:55:11.967Z,67.80
2019-06-26T05:57:42.154Z,72.17
2019-06-26T06:00:12.074Z,68.47
2019-06-26T06:02:41.405Z,70.27
2019-06-26T06:05:11.571Z,73.07
2019-06-26T06:07:40.785Z,71.33
2019-06-26T06:10:10.717Z,64.57
2019-06-26T06:12:39.898Z,68.70
2019-06-26T06:15:09.774Z,77.63
2019-06-26T06:17:39.019Z,75.93
2019-06-26T06:20:08.904Z,54.87
2019-06-26T06:22:38.192Z,51.43
2019-06-26T06:25:07.949Z,74.23
2019-06-26T06:27:37.302Z,74.53
2019-06-26T06:30:06.923Z,50.70
2019-06-26T06:32:36.114Z,43.67
2019-06-26T06:35:06.672Z,61.57
2019-06-26T06:37:35.937Z,66.47
2019-06-26T06:40:06.788Z,73.73
2019-06-26T06:42:35.979Z,60.60
2019-06-26T06:45:06.857Z,57.33
2019-06-26T06:47:36.053Z,70.13
2019-06-26T06:50:05.702Z,71.93
2019-06-26T06:52:35.039Z,81.13
2019-06-26T06:55:08.075Z,72.07
2019-06-26T06:57:37.338Z,79.27
2019-06-26T07:00:07.333Z,79.67
2019-06-26T07:02:36.644Z,50.47
2019-06-26T07:05:07.535Z,75.57
2019-06-26T07:07:36.948Z,82.67
2019-06-26T07:10:06.580Z,82.77
2019-06-26T07:12:35.800Z,73.53
2019-06-26T07:15:08.999Z,83.47
2019-06-26T07:17:38.194Z,81.00
2019-06-26T07:20:08.044Z,86.10
2019-06-26T07:22:37.410Z,74.47
2019-06-26T07:25:07.845Z,74.77
2019-06-26T07:27:36.856Z,83.60
2019-06-26T07:30:05.861Z,86.90
2019-06-26T07:32:34.956Z,78.80
2019-06-26T07:35:04.513Z,84.53
2019-06-26T07:37:33.302Z,84.63
2019-06-26T07:40:02.568Z,83.43
2019-06-26T07:42:31.496Z,83.07
2019-06-26T07:45:00.220Z,86.87
2019-06-26T07:47:42.365Z,84.90
2019-06-26T07:49:59.545Z,47.80
2019-06-26T07:52:28.283Z,81.83
2019-06-26T07:54:57.088Z,79.43
2019-06-26T07:57:25.837Z,55.87
2019-06-26T07:59:54.732Z,88.23
2019-06-26T08:02:23.780Z,78.47
2019-06-26T08:04:52.547Z,87.70
2019-06-26T08:07:21.304Z,77.77
2019-06-26T08:09:50.049Z,80.90
2019-06-26T08:12:18.864Z,82.07
2019-06-26T08:14:47.589Z,70.17
2019-06-26T08:17:16.328Z,74.20
2019-06-26T08:19:45.100Z,78.87
2019-06-26T08:22:13.935Z,73.10
2019-06-26T08:24:42.717Z,76.13
2019-06-26T08:27:13.167Z,77.47
2019-06-26T08:29:42.345Z,57.63
2019-06-26T08:32:16.202Z,65.67
2019-06-26T08:34:45.524Z,73.63
2019-06-26T08:37:14.784Z,73.03
2019-06-26T08:39:43.710Z,66.87
2019-06-26T08:42:14.729Z,61.80
2019-06-26T08:44:43.524Z,73.10
2019-06-26T08:47:12.411Z,70.30
2019-06-26T08:49:41.290Z,44.60
2019-06-26T08:52:10.048Z,62.83
2019-06-26T08:54:38.860Z,61.90
2019-06-26T08:57:07.568Z,74.50
2019-06-26T08:59:36.386Z,69.60
2019-06-26T09:02:05.144Z,69.33
2019-06-26T09:04:34.065Z,58.00
2019-06-26T09:07:02.853Z,66.53
2019-06-26T09:09:31.601Z,83.03
2019-06-26T09:12:00.327Z,65.00
2019-06-26T09:14:29.161Z,76.90
2019-06-26T09:16:57.954Z,73.10
2019-06-26T09:19:26.832Z,55.87
2019-06-26T09:21:55.919Z,66.43
2019-06-26T09:24:24.820Z,48.20
2019-06-26T09:26:53.592Z,61.37
2019-06-26T09:29:23.957Z,66.77
2019-06-26T09:31:53.081Z,72.67
2019-06-26T09:34:22.093Z,67.23
2019-06-26T09:36:50.846Z,69.53
2019-06-26T09:39:19.726Z,75.73
2019-06-26T09:41:48.459Z,60.27
2019-06-26T09:44:17.209Z,70.37
2019-06-26T09:46:46.022Z,70.00
2019-06-26T09:49:14.844Z,81.17
2019-06-26T09:51:44.027Z,77.20
2019-06-26T09:54:12.798Z,68.27
2019-06-26T09:56:41.660Z,83.17
2019-06-26T09:59:10.625Z,83.40
2019-06-26T10:01:39.410Z,83.30
2019-06-26T10:04:08.354Z,90.97
2019-06-26T10:06:37.105Z,89.03
2019-06-26T10:09:06.871Z,87.57
2019-06-26T10:11:35.622Z,85.57
2019-06-26T10:14:04.481Z,88.63
2019-06-26T10:16:33.331Z,80.70
2019-06-26T10:19:10.264Z,75.50
2019-06-26T10:21:32.590Z,83.20
2019-06-26T10:24:01.551Z,74.17
2019-06-26T10:26:32.473Z,81.57
2019-06-26T10:29:00.795Z,90.27
2019-06-26T10:31:29.593Z,77.33
2019-06-26T10:33:58.310Z,82.57
2019-06-26T10:36:27.144Z,75.77
2019-06-26T10:38:55.888Z,89.00
2019-06-26T10:41:24.725Z,81.67
2019-06-26T10:43:53.553Z,99.13
2019-06-26T10:46:22.503Z,85.53
2019-06-26T10:48:51.254Z,85.00
2019-06-26T10:51:20.065Z,90.90
2019-06-26T10:53:48.785Z,98.30
2019-06-26T10:56:17.578Z,84.43
2019-06-26T10:58:46.320Z,69.57
2019-06-26T11:01:15.122Z,88.93
2019-06-26T11:03:43.931Z,95.90
2019-06-26T11:06:12.759Z,84.03
2019-06-26T11:08:41.539Z,99.43
2019-06-26T11:11:10.500Z,95.73
2019-06-26T11:13:39.288Z,95.27
2019-06-26T11:16:08.084Z,83.13
2019-06-26T11:18:36.968Z,100.13
2019-06-26T11:21:05.763Z,61.73
2019-06-26T11:23:34.544Z,86.13
2019-06-26T11:26:03.296Z,94.03
2019-06-26T11:28:32.116Z,83.57
2019-06-26T11:31:00.943Z,89.17
2019-06-26T11:33:29.868Z,79.33
2019-06-26T11:35:58.691Z,83.43
2019-06-26T11:38:27.531Z,78.10
2019-06-26T11:40:56.363Z,78.23
2019-06-26T11:43:25.206Z,76.63
2019-06-26T11:45:54.007Z,65.17
2019-06-26T11:48:22.802Z,58.37
2019-06-26T11:50:51.591Z,58.30
2019-06-26T11:53:20.353Z,47.73
2019-06-26T11:55:49.203Z,50.83
2019-06-26T11:58:18.044Z,51.77
2019-06-26T12:00:46.856Z,59.90
2019-06-26T12:03:16.307Z,55.17
2019-06-26T12:05:45.073Z,53.97
2019-06-26T12:08:13.960Z,46.60
2019-06-26T12:10:42.917Z,52.97
2019-06-26T12:13:11.736Z,57.47
2019-06-26T12:15:40.598Z,52.33
2019-06-26T12:18:09.444Z,42.33
2019-06-26T12:20:38.291Z,49.07
2019-06-26T12:23:07.200Z,51.10
2019-06-26T12:25:36.305Z,48.33
2019-06-26T12:28:05.274Z,50.13
2019-06-26T12:30:34.077Z,50.27
2019-06-26T12:33:03.923Z,46.33
2019-06-26T12:35:32.975Z,43.10
2019-06-26T12:38:01.760Z,39.33
2019-06-26T12:40:31.480Z,45.47
2019-06-26T12:43:00.474Z,36.43
2019-06-26T12:45:29.317Z,35.67
2019-06-26T12:47:58.089Z,36.23
2019-06-26T12:50:35.175Z,40.70
2019-06-26T12:52:57.764Z,42.10
2019-06-26T12:55:26.575Z,44.57
2019-06-26T12:58:11.371Z,42.90
2019-06-26T13:00:25.838Z,45.03
2019-06-26T13:02:54.654Z,41.73
2019-06-26T13:05:23.468Z,38.70
2019-06-26T13:07:52.188Z,39.47
2019-06-26T13:10:21.238Z,36.10
2019-06-26T13:12:50.064Z,39.50
2019-06-26T13:15:19.518Z,41.57
2019-06-26T13:17:48.385Z,37.77
2019-06-26T13:20:17.252Z,39.63
2019-06-26T13:22:46.205Z,44.73
2019-06-26T13:25:16.281Z,37.43
2019-06-26T13:27:45.244Z,33.43
2019-06-26T13:30:14.390Z,39.70
2019-06-26T13:32:43.130Z,35.10
2019-06-26T13:35:12.049Z,37.23
2019-06-26T13:37:40.964Z,40.13
2019-06-26T13:40:09.763Z,38.23
2019-06-26T13:42:38.502Z,29.57
2019-06-26T13:45:07.522Z,33.00
2019-06-26T13:47:36.355Z,29.17
2019-06-26T13:50:05.679Z,42.17
2019-06-26T13:52:34.588Z,32.97
2019-06-26T13:55:04.088Z,32.17
2019-06-26T13:57:33.033Z,24.50
2019-06-26T14:00:02.360Z,29.57
2019-06-26T14:02:31.268Z,26.77
2019-06-26T14:05:00.287Z,24.17
2019-06-26T14:07:48.383Z,25.70
2019-06-26T14:10:36.456Z,24.40
2019-06-26T14:13:43.957Z,24.10
2019-06-26T14:16:32.162Z,24.77
2019-06-26T14:19:21.900Z,25.63
2019-06-26T14:22:12.969Z,21.17
2019-06-26T14:25:19.212Z,20.33
2019-06-26T14:28:07.355Z,26.10
2019-06-26T14:33:59.229Z,20.77
2019-06-26T14:42:32.583Z,19.47
2019-06-26T15:04:27.818Z,16.20
2019-06-26T15:13:00.660Z,15.30
2019-06-26T15:21:33.036Z,15.80
2019-06-26T15:29:33.140Z,15.37
2019-06-26T15:43:26.244Z,13.10
2019-06-26T15:54:40.475Z,11.60
2019-06-26T16:03:13.536Z,12.13
2019-06-26T16:08:33.190Z,12.00
2019-06-26T16:22:32.363Z,11.80
2019-06-26T16:28:01.069Z,12.53
2019-06-26T16:41:12.013Z,14.47
2019-06-26T16:47:04.120Z,11.87
2019-06-26T16:52:23.606Z,11.93
2019-06-26T16:57:43.164Z,11.53
2019-06-26T17:11:04.919Z,12.80
2019-06-26T17:24:58.901Z,11.83
2019-06-26T17:32:59.127Z,10.87
2019-06-26T17:57:34.300Z,11.57
2019-06-26T18:06:06.818Z,11.47
2019-06-26T18:08:45.608Z,11.30
2019-06-26T18:38:42.585Z,8.30
2019-06-26T18:44:34.066Z,8.53
2019-06-26T18:55:47.488Z,9.60
2019-06-26T19:03:47.321Z,10.47
2019-06-26T19:12:05.561Z,9.03
2019-06-26T19:20:05.163Z,7.57
2019-06-26T19:36:49.530Z,9.67
2019-06-26T19:42:00.359Z,7.27
2019-06-26T19:44:39.386Z,8.93
2019-06-26T19:55:52.636Z,8.87
2019-06-26T20:01:31.151Z,9.70
2019-06-26T20:23:28.112Z,6.23
2019-06-26T20:26:07.227Z,9.10
2019-06-26T20:50:42.395Z,3.50
2019-06-26T20:56:25.922Z,6.00
2019-06-26T20:59:24.877Z,6.20
2019-06-26T21:02:13.131Z,7.23
2019-06-26T21:05:01.445Z,5.93
2019-06-26T21:08:10.415Z,11.07
2019-06-26T21:11:17.930Z,6.37
2019-06-26T21:14:06.114Z,6.97
2019-06-26T21:16:56.913Z,3.80
2019-06-26T21:19:45.119Z,6.90
2019-06-26T21:22:52.632Z,6.37
2019-06-26T21:25:40.759Z,8.30
2019-06-26T21:28:48.262Z,7.10
2019-06-26T21:31:36.364Z,7.47
2019-06-26T21:34:24.485Z,9.77
2019-06-26T21:39:43.891Z,11.43
2019-06-26T21:42:22.905Z,8.37
2019-06-26T21:48:14.705Z,7.97
2019-06-26T21:56:46.634Z,8.33
2019-06-26T22:16:02.232Z,6.80
2019-06-26T22:37:25.308Z,10.73
2019-06-26T22:40:03.989Z,8.13
2019-06-26T22:45:23.452Z,7.37
2019-06-26T22:53:23.741Z,7.43
2019-06-26T23:07:16.973Z,7.23
2019-06-26T23:09:55.973Z,8.17
2019-06-26T23:26:30.320Z,6.13
2019-06-26T23:47:53.226Z,6.30
2019-06-26T23:50:32.243Z,5.80
